Aérodrome :
LOGIN :

S'inscrire | Disclaimer

   EN    FR    IT 

 










Légende :    VFR   VFR Marginal   IFR   IFR Intensif   IFR Très Intensif
Visi : 
Plafond : 
>= 8 km
>= 3000ft
5 à 8 km
1000 à 3000 ft
1500m à 5 km
500 à 1000 ft
800 à 1500m
200 à 500 ft
< 800m
< 200 ft
Symboles :   Orages  Brouillard  Fortes neiges  Fortes précipitations  Vent > 20 kt
SIGMETs :   Divers  Orages  Givrage  Turbulence  Onde Orograph.  Cendres Volcan.






- Altitude de l'aérodrome : 245 ft
- Code IATA : BIQ


LFBZ - Biarritz

DERNIER METAR :
  • 231430Z AUTO 29013KT 9999 FEW023/// SCT032/// BKN048/// ///TCU 22/17 Q1011 TEMPO 28018G30KT 4000 SHRA BKN025CB

METARs EXPIRÉS :
  • 231400Z AUTO 28011KT 9999 FEW026/// BKN052/// BKN100/// ///CB 22/18 Q1011 TEMPO 28018G30KT 3000 TSRA
  • 231330Z AUTO 27010KT 240V300 9999 -RA FEW044/// SCT054/// BKN066/// ///CB 21/18 Q1010 TEMPO 28018G30KT 3000 TSRA
  • 231300Z AUTO 30015G26KT 9999 FEW044/// BKN060/// BKN096/// ///CB 23/16 Q1010 TEMPO 4000 SHRA BKN030 BECMG 30010KT
  • 231230Z AUTO 28013KT 9999 FEW062 SCT100 BKN120 24/17 Q1010 TEMPO 4000 SHRA BKN025TCU
  • 231200Z AUTO 28012KT 9999 FEW064 BKN120 BKN150 25/16 Q1010 TEMPO 18005KT

TAF AMD TAF LFBZ
Valide du 23 à 12h jusqu'au 24 à 12h UTC


231246Z 2312/2412 28010KT 9999 BKN060
TEMPO 2313/2409 4000 SHRA BKN025TCU
PROB30
TEMPO 2313/2316 28018G30KT 3000 TSRA BKN025CB



MET'MAP, la Météo Aéronautique d'un coup d'oeil ! - Copyright ORBIFLY Décembre 2007 - Disclaimer

ORBIFLY MET'MAP TEAM :

Programmation & Développement : Alexandra Zaïnal
Sur une idée originale de : Baudouin d'Aumeries
Assistance à la programmation : Marc-Olivier Méhu
Soutien technique & logistique : Manuel Goepfert

Contact : metmap@orbifly.com




SOURCES & CREDITS :

   NOAA